createdAt,value
2022-08-17T00:00:43.678Z,46.30
2022-08-17T00:03:17.182Z,44.91
2022-08-17T00:05:43.915Z,48.48
2022-08-17T00:08:10.308Z,56.45
2022-08-17T00:10:36.685Z,55.21
2022-08-17T00:13:03.065Z,55.82
2022-08-17T00:15:29.467Z,52.85
2022-08-17T00:17:55.852Z,59.66
2022-08-17T00:20:23.417Z,59.68
2022-08-17T00:22:58.522Z,57.75
2022-08-17T00:25:24.921Z,59.04
2022-08-17T00:27:51.299Z,57.31
2022-08-17T00:30:17.709Z,56.11
2022-08-17T00:33:22.799Z,55.44
2022-08-17T00:35:30.457Z,52.76
2022-08-17T00:37:56.839Z,54.77
2022-08-17T00:40:24.633Z,56.36
2022-08-17T00:42:51.390Z,58.48
2022-08-17T00:45:17.908Z,57.66
2022-08-17T00:47:44.298Z,57.99
2022-08-17T00:50:10.673Z,58.05
2022-08-17T00:52:37.051Z,57.91
2022-08-17T00:55:03.432Z,58.68
2022-08-17T00:57:29.828Z,58.27
2022-08-17T01:00:02.182Z,58.83
2022-08-17T01:02:29.792Z,57.51
2022-08-17T01:05:00.674Z,57.20
2022-08-17T01:07:27.054Z,57.37
2022-08-17T01:09:53.446Z,56.21
2022-08-17T01:12:19.855Z,54.91
2022-08-17T01:14:46.248Z,55.05
2022-08-17T01:17:12.633Z,55.33
2022-08-17T01:19:39.030Z,56.21
2022-08-17T01:22:05.398Z,55.44
2022-08-17T01:24:31.779Z,56.11
2022-08-17T01:27:00.254Z,55.59
2022-08-17T01:29:26.726Z,54.51
2022-08-17T01:31:53.124Z,54.50
2022-08-17T01:34:19.502Z,56.25
2022-08-17T01:36:46.770Z,57.72
2022-08-17T01:39:13.168Z,57.83
2022-08-17T01:41:39.566Z,57.23
2022-08-17T01:44:05.940Z,57.43
2022-08-17T01:46:32.353Z,56.50
2022-08-17T01:48:58.724Z,57.87
2022-08-17T01:51:25.098Z,57.28
2022-08-17T01:53:51.487Z,57.01
2022-08-17T01:56:17.869Z,56.78
2022-08-17T01:58:44.262Z,55.66
2022-08-17T02:01:10.714Z,55.50
2022-08-17T02:03:37.143Z,54.31
2022-08-17T02:06:03.518Z,53.62
2022-08-17T02:08:39.245Z,54.62
2022-08-17T02:11:18.053Z,53.42
2022-08-17T02:13:46.194Z,52.93
2022-08-17T02:16:12.587Z,53.97
2022-08-17T02:18:38.961Z,52.51
2022-08-17T02:21:05.364Z,53.86
2022-08-17T02:23:31.727Z,54.86
2022-08-17T02:25:58.127Z,54.83
2022-08-17T02:28:24.524Z,55.41
2022-08-17T02:31:02.095Z,54.36
2022-08-17T02:33:42.463Z,54.15
2022-08-17T02:36:09.760Z,55.12
2022-08-17T02:38:36.139Z,54.31
2022-08-17T02:41:02.522Z,54.13
2022-08-17T02:43:28.924Z,55.07
2022-08-17T02:45:55.322Z,55.43
2022-08-17T02:48:30.437Z,56.21
2022-08-17T02:50:58.297Z,58.47
2022-08-17T02:53:24.705Z,57.82
2022-08-17T02:55:52.178Z,58.27
2022-08-17T02:58:19.085Z,58.34
2022-08-17T03:01:01.976Z,56.76
2022-08-17T03:03:28.376Z,57.38
2022-08-17T03:05:54.744Z,56.53
2022-08-17T03:08:21.139Z,56.89
2022-08-17T03:10:47.535Z,58.41
2022-08-17T03:13:13.905Z,57.13
2022-08-17T03:15:43.765Z,57.79
2022-08-17T03:18:14.395Z,56.40
2022-08-17T03:20:51.611Z,56.79
2022-08-17T03:23:17.993Z,56.23
2022-08-17T03:25:44.368Z,56.86
2022-08-17T03:28:12.149Z,57.02
2022-08-17T03:30:38.530Z,56.89
2022-08-17T03:33:04.909Z,57.67
2022-08-17T03:35:31.281Z,56.51
2022-08-17T03:38:00.117Z,56.34
2022-08-17T03:40:55.591Z,55.96
2022-08-17T03:43:13.941Z,55.24
2022-08-17T03:45:43.663Z,55.18
2022-08-17T03:48:10.041Z,55.03
2022-08-17T03:50:36.411Z,56.53
2022-08-17T03:53:02.813Z,56.08
2022-08-17T03:55:35.885Z,56.36
2022-08-17T03:58:02.660Z,56.23
2022-08-17T04:00:29.053Z,58.40
2022-08-17T04:02:55.477Z,57.05
2022-08-17T04:05:21.857Z,56.47
2022-08-17T04:07:48.227Z,56.75
2022-08-17T04:10:14.613Z,57.33
2022-08-17T04:12:40.984Z,57.45
2022-08-17T04:15:07.414Z,60.13
2022-08-17T04:17:33.795Z,58.93
2022-08-17T04:20:00.244Z,58.95
2022-08-17T04:22:30.441Z,59.52
2022-08-17T04:24:59.891Z,59.43
2022-08-17T04:27:26.282Z,59.01
2022-08-17T04:29:55.553Z,58.83
2022-08-17T04:33:04.504Z,59.26
2022-08-17T04:35:08.789Z,59.59
2022-08-17T04:37:35.171Z,60.86
2022-08-17T04:40:04.143Z,60.92
2022-08-17T04:42:30.921Z,60.29
2022-08-17T04:44:57.298Z,59.27
2022-08-17T04:47:23.721Z,60.32
2022-08-17T04:49:50.099Z,60.91
2022-08-17T04:52:37.508Z,58.51
2022-08-17T04:55:02.845Z,58.97
2022-08-17T04:57:29.246Z,58.61
2022-08-17T05:00:05.920Z,59.14
2022-08-17T05:02:32.437Z,60.89
2022-08-17T05:04:58.840Z,62.04
2022-08-17T05:07:31.291Z,62.44
2022-08-17T05:09:58.020Z,62.79
2022-08-17T05:12:24.397Z,62.11
2022-08-17T05:14:50.775Z,61.94
2022-08-17T05:17:17.150Z,62.93
2022-08-17T05:19:43.566Z,62.63
2022-08-17T05:22:09.949Z,61.97
2022-08-17T05:24:42.673Z,59.64
2022-08-17T05:27:10.209Z,62.07
2022-08-17T05:29:43.170Z,55.08
2022-08-17T05:32:38.614Z,60.64
2022-08-17T05:34:55.911Z,61.59
2022-08-17T05:37:22.733Z,57.84
2022-08-17T05:39:49.139Z,60.89
2022-08-17T05:42:15.589Z,60.26
2022-08-17T05:44:41.998Z,59.52
2022-08-17T05:47:09.834Z,59.91
2022-08-17T05:49:36.849Z,59.68
2022-08-17T05:52:03.244Z,59.25
2022-08-17T05:54:29.615Z,58.10
2022-08-17T05:56:56.024Z,59.05
2022-08-17T05:59:22.416Z,59.25
2022-08-17T06:01:48.797Z,59.30
2022-08-17T06:04:15.192Z,54.58
2022-08-17T06:06:41.588Z,52.95
2022-08-17T06:09:08.003Z,53.01
2022-08-17T06:11:35.347Z,52.04
2022-08-17T06:14:03.761Z,55.52
2022-08-17T06:16:34.044Z,56.38
2022-08-17T06:19:00.984Z,56.82
2022-08-17T06:21:30.370Z,56.42
2022-08-17T06:23:58.328Z,55.70
2022-08-17T06:26:25.938Z,55.69
2022-08-17T06:29:00.895Z,55.79
2022-08-17T06:31:27.300Z,54.22
2022-08-17T06:33:53.688Z,54.70
2022-08-17T06:36:20.082Z,54.36
2022-08-17T06:38:48.076Z,54.06
2022-08-17T06:41:14.478Z,53.82
2022-08-17T06:43:43.114Z,51.81
2022-08-17T06:46:11.467Z,51.91
2022-08-17T06:48:37.884Z,52.87
2022-08-17T06:51:04.290Z,52.08
2022-08-17T06:53:30.660Z,52.33
2022-08-17T06:55:57.055Z,52.84
2022-08-17T06:58:23.447Z,53.09
2022-08-17T07:00:58.738Z,52.07
2022-08-17T07:03:25.398Z,51.69
2022-08-17T07:05:51.774Z,51.96
2022-08-17T07:08:18.178Z,52.23
2022-08-17T07:10:44.568Z,51.93
2022-08-17T07:13:10.958Z,52.03
2022-08-17T07:15:37.366Z,52.38
2022-08-17T07:18:03.905Z,52.61
2022-08-17T07:20:30.344Z,52.49
2022-08-17T07:22:59.989Z,52.63
2022-08-17T07:25:26.727Z,52.21
2022-08-17T07:27:53.129Z,52.65
2022-08-17T07:30:19.498Z,53.13
2022-08-17T07:32:47.026Z,54.37
2022-08-17T07:35:16.264Z,54.17
2022-08-17T07:37:42.756Z,52.94
2022-08-17T07:40:15.887Z,52.65
2022-08-17T07:42:46.756Z,52.38
2022-08-17T07:45:13.256Z,52.08
2022-08-17T07:47:39.649Z,51.59
2022-08-17T07:50:06.065Z,51.37
2022-08-17T07:52:50.619Z,51.74
2022-08-17T07:55:18.435Z,51.98
2022-08-17T07:57:44.824Z,51.16
2022-08-17T08:00:16.110Z,49.75
2022-08-17T08:02:42.804Z,47.70
2022-08-17T08:05:10.135Z,48.65
2022-08-17T08:07:36.570Z,47.04
2022-08-17T08:10:02.971Z,47.11
2022-08-17T08:12:33.663Z,50.14
2022-08-17T08:15:00.378Z,52.39
2022-08-17T08:17:26.775Z,53.63
2022-08-17T08:19:53.157Z,53.45
2022-08-17T08:22:19.547Z,53.17
2022-08-17T08:24:45.937Z,53.15
2022-08-17T08:27:12.333Z,51.40
2022-08-17T08:29:38.700Z,50.59
2022-08-17T08:32:05.101Z,50.87
2022-08-17T08:34:59.029Z,50.44
2022-08-17T08:37:25.003Z,50.71
2022-08-17T08:39:56.932Z,49.97
2022-08-17T08:42:23.486Z,49.98
2022-08-17T08:45:00.719Z,49.61
2022-08-17T08:47:30.400Z,52.01
2022-08-17T08:50:04.491Z,57.02
2022-08-17T08:52:31.337Z,57.10
2022-08-17T08:54:57.755Z,55.99
2022-08-17T08:57:28.975Z,56.88
2022-08-17T08:59:58.330Z,57.23
2022-08-17T09:02:24.941Z,56.68
2022-08-17T09:05:13.405Z,56.43
2022-08-17T09:07:37.721Z,57.71
2022-08-17T09:10:04.111Z,57.65
2022-08-17T09:12:30.488Z,57.48
2022-08-17T09:14:56.882Z,56.05
2022-08-17T09:17:23.275Z,55.49
2022-08-17T09:19:49.670Z,58.32
2022-08-17T09:22:16.060Z,58.22
2022-08-17T09:24:42.465Z,57.42
2022-08-17T09:27:08.850Z,58.52
2022-08-17T09:29:35.373Z,58.09
2022-08-17T09:32:01.823Z,57.75
2022-08-17T09:34:32.149Z,58.67
2022-08-17T09:36:59.700Z,59.57
2022-08-17T09:39:26.140Z,58.44
2022-08-17T09:41:52.567Z,56.92
2022-08-17T09:44:23.553Z,55.64
2022-08-17T09:46:50.362Z,54.31
2022-08-17T09:49:16.747Z,54.12
2022-08-17T09:51:43.141Z,53.32
2022-08-17T09:54:37.667Z,51.46
2022-08-17T09:57:11.741Z,51.69
2022-08-17T09:59:42.299Z,52.82
2022-08-17T10:02:08.722Z,52.55
2022-08-17T10:04:39.883Z,52.51
2022-08-17T10:07:06.327Z,53.68
2022-08-17T10:09:32.714Z,53.58
2022-08-17T10:11:59.166Z,53.79
2022-08-17T10:14:37.252Z,53.77
2022-08-17T10:17:09.798Z,53.22
2022-08-17T10:19:36.196Z,52.92
2022-08-17T10:22:14.507Z,51.42
2022-08-17T10:24:41.440Z,51.21
2022-08-17T10:27:27.800Z,50.46
2022-08-17T10:29:54.197Z,51.11
2022-08-17T10:32:20.598Z,51.04
2022-08-17T10:34:47.029Z,49.63
2022-08-17T10:37:13.409Z,47.81
2022-08-17T10:39:52.624Z,47.90
2022-08-17T10:42:30.348Z,48.81
2022-08-17T10:44:59.284Z,47.67
2022-08-17T10:47:25.672Z,47.66
2022-08-17T10:49:52.074Z,49.72
2022-08-17T10:52:18.459Z,48.04
2022-08-17T10:54:44.843Z,47.36
2022-08-17T10:57:11.241Z,47.64
2022-08-17T10:59:37.665Z,47.44
2022-08-17T11:02:04.054Z,49.88
2022-08-17T11:04:30.465Z,49.57
2022-08-17T11:06:56.861Z,49.48
2022-08-17T11:09:23.251Z,49.30
2022-08-17T11:11:49.657Z,48.38
2022-08-17T11:14:16.041Z,50.18
2022-08-17T11:16:42.447Z,49.96
2022-08-17T11:19:10.143Z,49.79
2022-08-17T11:21:36.546Z,48.64
2022-08-17T11:24:02.960Z,48.67
2022-08-17T11:26:29.354Z,49.01
2022-08-17T11:28:55.780Z,48.82
2022-08-17T11:31:22.210Z,49.70
2022-08-17T11:34:05.754Z,47.42
2022-08-17T11:36:32.175Z,46.87
2022-08-17T11:38:58.582Z,45.46
2022-08-17T11:41:24.975Z,44.78
2022-08-17T11:43:51.454Z,45.35
2022-08-17T11:46:17.858Z,45.47
2022-08-17T11:48:47.012Z,45.26
2022-08-17T11:51:13.428Z,45.28
2022-08-17T11:53:39.803Z,44.82
2022-08-17T11:56:06.229Z,41.76
2022-08-17T11:58:32.620Z,39.38
2022-08-17T12:00:59.019Z,36.12
2022-08-17T12:03:25.446Z,34.55
2022-08-17T12:05:51.887Z,34.73
2022-08-17T12:08:18.343Z,38.14
2022-08-17T12:10:44.737Z,40.82
2022-08-17T12:13:11.127Z,44.75
2022-08-17T12:15:37.531Z,43.79
2022-08-17T12:18:03.968Z,42.54
2022-08-17T12:20:30.379Z,40.63
2022-08-17T12:22:56.773Z,40.51
2022-08-17T12:25:23.166Z,39.61
2022-08-17T12:28:06.202Z,41.38
2022-08-17T12:30:33.751Z,41.76
2022-08-17T12:33:00.150Z,42.08
2022-08-17T12:35:26.570Z,40.86
2022-08-17T12:37:52.987Z,43.05
2022-08-17T12:40:19.384Z,42.74
2022-08-17T12:42:45.797Z,41.84
2022-08-17T12:45:12.309Z,40.79
2022-08-17T12:47:38.696Z,40.76
2022-08-17T12:50:05.090Z,40.80
2022-08-17T12:52:33.368Z,40.18
2022-08-17T12:54:59.779Z,40.21
2022-08-17T12:57:26.186Z,40.29
2022-08-17T12:59:52.559Z,40.74
2022-08-17T13:02:18.948Z,41.16
2022-08-17T13:04:45.332Z,41.65
2022-08-17T13:07:14.209Z,40.27
2022-08-17T13:09:41.086Z,40.93
2022-08-17T13:12:07.728Z,40.78
2022-08-17T13:14:34.284Z,41.08
2022-08-17T13:17:00.739Z,40.88
2022-08-17T13:19:29.903Z,41.80
2022-08-17T13:22:07.078Z,41.46
2022-08-17T13:24:38.503Z,40.71
2022-08-17T13:27:08.216Z,40.91
2022-08-17T13:29:34.966Z,40.82
2022-08-17T13:32:04.231Z,40.91
2022-08-17T13:34:31.562Z,41.05
2022-08-17T13:36:59.796Z,40.58
2022-08-17T13:39:26.311Z,39.21
2022-08-17T13:41:52.743Z,38.88
2022-08-17T13:44:19.139Z,38.16
2022-08-17T13:46:45.533Z,37.52
2022-08-17T13:49:18.801Z,37.76
2022-08-17T13:51:45.199Z,37.60
2022-08-17T13:54:11.598Z,36.72
2022-08-17T13:56:39.574Z,37.74
2022-08-17T13:59:06.205Z,38.92
2022-08-17T14:01:32.701Z,39.41
2022-08-17T14:03:59.126Z,38.42
2022-08-17T14:06:52.979Z,37.92
2022-08-17T14:09:11.994Z,37.62
2022-08-17T14:11:38.412Z,38.01
2022-08-17T14:14:04.809Z,38.38
2022-08-17T14:16:31.192Z,37.36
2022-08-17T14:18:57.610Z,37.49
2022-08-17T14:21:24.008Z,37.53
2022-08-17T14:23:54.575Z,37.01
2022-08-17T14:26:21.391Z,35.60
2022-08-17T14:28:54.473Z,35.30
2022-08-17T14:31:22.583Z,34.61
2022-08-17T14:33:48.978Z,34.42
2022-08-17T14:36:15.403Z,33.56
2022-08-17T14:38:41.804Z,34.85
2022-08-17T14:41:08.193Z,33.93
2022-08-17T14:43:34.574Z,32.89
2022-08-17T14:46:00.949Z,32.76
2022-08-17T14:48:27.398Z,32.25
2022-08-17T14:50:53.782Z,32.13
2022-08-17T14:53:20.157Z,31.89
2022-08-17T14:55:47.075Z,32.36
2022-08-17T14:58:15.051Z,32.59
2022-08-17T15:00:41.456Z,32.41
2022-08-17T15:03:07.844Z,32.58
2022-08-17T15:05:34.282Z,32.66
2022-08-17T15:08:00.726Z,32.66
2022-08-17T15:10:27.115Z,33.56
2022-08-17T15:12:53.582Z,33.34
2022-08-17T15:15:19.976Z,33.32
2022-08-17T15:17:46.352Z,32.72
2022-08-17T15:20:14.840Z,32.29
2022-08-17T15:22:41.606Z,32.60
2022-08-17T15:25:07.988Z,33.40
2022-08-17T15:27:34.392Z,33.01
2022-08-17T15:30:00.778Z,34.04
2022-08-17T15:32:27.182Z,34.94
2022-08-17T15:34:53.565Z,35.08
2022-08-17T15:37:19.980Z,35.42
2022-08-17T15:39:46.421Z,35.43
2022-08-17T15:42:12.867Z,36.65
2022-08-17T15:44:39.269Z,37.20
2022-08-17T15:47:05.660Z,37.85
2022-08-17T15:49:32.054Z,38.91
2022-08-17T15:51:58.590Z,39.43
2022-08-17T15:54:25.029Z,40.23
2022-08-17T15:56:58.163Z,40.54
2022-08-17T15:59:24.572Z,40.95
2022-08-17T16:02:54.705Z,41.28
2022-08-17T16:04:39.633Z,41.56
2022-08-17T16:07:10.592Z,41.98
2022-08-17T16:09:36.993Z,42.24
2022-08-17T16:12:03.394Z,42.61
2022-08-17T16:14:33.871Z,42.75
2022-08-17T16:17:01.588Z,42.76
2022-08-17T16:19:27.982Z,43.64
2022-08-17T16:21:54.387Z,43.43
2022-08-17T16:24:20.808Z,44.30
2022-08-17T16:26:47.195Z,45.13
2022-08-17T16:29:13.581Z,46.08
2022-08-17T16:31:39.995Z,48.06
2022-08-17T16:34:17.353Z,55.53
2022-08-17T16:36:54.639Z,60.18
2022-08-17T16:39:22.693Z,66.78
2022-08-17T16:41:49.093Z,72.78
2022-08-17T16:44:15.770Z,73.14
2022-08-17T16:46:45.768Z,82.60
2022-08-17T16:49:12.603Z,86.34
2022-08-17T16:51:56.127Z,82.72
2022-08-17T16:54:22.525Z,85.93
2022-08-17T16:56:48.930Z,88.12
2022-08-17T16:59:31.030Z,90.32
2022-08-17T17:02:02.098Z,90.64
2022-08-17T17:04:28.489Z,89.44
2022-08-17T17:06:54.885Z,89.67
2022-08-17T17:09:21.275Z,90.56
2022-08-17T17:11:47.717Z,88.37
2022-08-17T17:14:14.096Z,88.71
2022-08-17T17:16:42.856Z,88.75
2022-08-17T17:19:11.264Z,90.07
2022-08-17T17:21:37.684Z,89.55
2022-08-17T17:24:04.089Z,89.48
2022-08-17T17:26:30.468Z,85.73
2022-08-17T17:28:56.864Z,89.19
2022-08-17T17:31:23.242Z,87.86
2022-08-17T17:33:49.696Z,85.97
2022-08-17T17:36:16.081Z,86.27
2022-08-17T17:38:42.501Z,84.32
2022-08-17T17:41:08.894Z,76.57
2022-08-17T17:43:40.316Z,82.64
2022-08-17T17:46:27.921Z,80.25
2022-08-17T17:48:53.612Z,83.60
2022-08-17T17:52:06.401Z,77.66
2022-08-17T17:54:06.406Z,79.30
2022-08-17T17:56:43.120Z,80.71
2022-08-17T17:59:12.757Z,82.09
2022-08-17T18:01:41.008Z,79.76
2022-08-17T18:04:17.657Z,80.38
2022-08-17T18:06:47.217Z,77.39
2022-08-17T18:09:19.465Z,78.25
2022-08-17T18:11:46.041Z,79.54
2022-08-17T18:14:17.994Z,76.78
2022-08-17T18:16:44.396Z,78.25
2022-08-17T18:19:10.813Z,73.72
2022-08-17T18:21:37.273Z,75.69
2022-08-17T18:24:03.673Z,78.54
2022-08-17T18:26:30.106Z,77.79
2022-08-17T18:28:58.584Z,74.64
2022-08-17T18:31:24.982Z,71.92
2022-08-17T18:33:51.373Z,72.05
2022-08-17T18:36:17.764Z,73.27
2022-08-17T18:38:44.152Z,75.23
2022-08-17T18:41:10.546Z,72.88
2022-08-17T18:43:53.119Z,72.83
2022-08-17T18:46:28.600Z,71.34
2022-08-17T18:48:56.005Z,72.08
2022-08-17T18:51:40.786Z,72.98
2022-08-17T18:54:09.361Z,73.82
2022-08-17T18:56:35.736Z,76.74
2022-08-17T18:59:02.188Z,76.95
2022-08-17T19:01:41.757Z,75.58
2022-08-17T19:04:14.963Z,74.92
2022-08-17T19:06:41.366Z,75.10
2022-08-17T19:09:07.743Z,76.56
2022-08-17T19:11:34.145Z,75.59
2022-08-17T19:14:00.541Z,76.36
2022-08-17T19:16:26.933Z,75.87
2022-08-17T19:18:53.434Z,75.83
2022-08-17T19:21:19.844Z,75.54
2022-08-17T19:23:54.003Z,77.22
2022-08-17T19:26:55.210Z,75.74
2022-08-17T19:29:07.256Z,76.23
2022-08-17T19:31:33.657Z,76.17
2022-08-17T19:34:02.528Z,75.65
2022-08-17T19:36:28.955Z,75.49
2022-08-17T19:38:55.345Z,74.47
2022-08-17T19:41:22.741Z,73.26
2022-08-17T19:43:49.160Z,73.95
2022-08-17T19:46:15.539Z,74.42
2022-08-17T19:48:42.026Z,74.48
2022-08-17T19:51:08.404Z,74.91
2022-08-17T19:54:01.546Z,74.15
2022-08-17T19:56:21.222Z,73.20
2022-08-17T19:58:47.681Z,73.38
2022-08-17T20:01:14.601Z,72.44
2022-08-17T20:03:41.016Z,72.29
2022-08-17T20:06:14.661Z,72.33
2022-08-17T20:08:41.072Z,72.37
2022-08-17T20:11:07.468Z,72.28
2022-08-17T20:13:34.971Z,69.93
2022-08-17T20:16:01.373Z,69.26
2022-08-17T20:18:27.787Z,68.69
2022-08-17T20:20:55.709Z,68.26
2022-08-17T20:23:22.313Z,67.92
2022-08-17T20:25:48.729Z,68.30
2022-08-17T20:28:15.149Z,67.54
2022-08-17T20:30:41.545Z,67.93
2022-08-17T20:33:12.461Z,67.49
2022-08-17T20:35:39.739Z,66.16
2022-08-17T20:38:06.126Z,66.36
2022-08-17T20:40:32.646Z,66.95
2022-08-17T20:42:59.065Z,66.75
2022-08-17T20:45:25.447Z,66.18
2022-08-17T20:48:18.724Z,66.16
2022-08-17T20:50:38.210Z,66.24
2022-08-17T20:53:04.701Z,64.91
2022-08-17T20:55:31.119Z,63.99
2022-08-17T20:57:58.970Z,61.92
2022-08-17T21:00:25.344Z,62.16
2022-08-17T21:02:51.812Z,62.93
2022-08-17T21:05:18.233Z,63.02
2022-08-17T21:07:44.649Z,62.62
2022-08-17T21:10:11.075Z,62.12
2022-08-17T21:12:37.477Z,61.66
2022-08-17T21:15:03.879Z,62.83
2022-08-17T21:17:30.278Z,70.04
2022-08-17T21:20:10.394Z,69.99
2022-08-17T21:22:38.103Z,70.29
2022-08-17T21:25:04.510Z,70.46
2022-08-17T21:27:30.877Z,70.22
2022-08-17T21:29:57.266Z,69.14
2022-08-17T21:32:24.493Z,69.81
2022-08-17T21:34:51.748Z,69.73
2022-08-17T21:37:18.120Z,69.87
2022-08-17T21:39:44.712Z,68.63
2022-08-17T21:42:11.131Z,67.53
2022-08-17T21:44:37.531Z,67.32
2022-08-17T21:47:03.915Z,65.30
2022-08-17T21:49:30.290Z,65.64
2022-08-17T21:52:04.294Z,64.10
2022-08-17T21:54:30.663Z,65.27
2022-08-17T21:56:57.072Z,66.37
2022-08-17T21:59:23.469Z,65.21
2022-08-17T22:01:50.593Z,65.19
2022-08-17T22:04:17.134Z,66.22
2022-08-17T22:06:56.709Z,66.83
2022-08-17T22:09:24.109Z,66.92
2022-08-17T22:11:50.497Z,66.74
2022-08-17T22:14:16.915Z,67.21
2022-08-17T22:16:43.880Z,68.48
2022-08-17T22:19:10.312Z,66.53
2022-08-17T22:21:36.685Z,66.58
2022-08-17T22:24:03.089Z,65.38
2022-08-17T22:26:29.516Z,66.97
2022-08-17T22:28:55.902Z,66.10
2022-08-17T22:31:22.310Z,67.15
2022-08-17T22:33:48.777Z,65.54
2022-08-17T22:36:15.202Z,65.36
2022-08-17T22:38:41.597Z,65.47
2022-08-17T22:41:09.943Z,67.53
2022-08-17T22:43:36.367Z,66.11
2022-08-17T22:46:02.780Z,66.86
2022-08-17T22:48:29.214Z,66.46
2022-08-17T22:50:55.734Z,66.35
2022-08-17T22:53:22.139Z,66.54
2022-08-17T22:55:48.511Z,67.64
2022-08-17T22:58:14.908Z,66.94
2022-08-17T23:00:41.267Z,67.95
2022-08-17T23:03:07.741Z,67.55
2022-08-17T23:05:34.175Z,66.43
2022-08-17T23:08:00.540Z,66.32
2022-08-17T23:10:26.912Z,66.01
2022-08-17T23:12:53.290Z,66.58
2022-08-17T23:15:19.702Z,66.82
2022-08-17T23:17:46.085Z,65.40
2022-08-17T23:20:12.542Z,65.81
2022-08-17T23:22:52.561Z,65.78
2022-08-17T23:25:19.333Z,65.76
2022-08-17T23:27:47.005Z,65.48
2022-08-17T23:30:13.534Z,65.24
2022-08-17T23:32:53.360Z,65.52
2022-08-17T23:35:20.450Z,63.98
2022-08-17T23:38:06.836Z,64.65
2022-08-17T23:40:33.240Z,64.97
2022-08-17T23:42:59.673Z,65.17
2022-08-17T23:45:26.107Z,66.33
2022-08-17T23:47:52.647Z,65.94
2022-08-17T23:50:19.127Z,65.15
2022-08-17T23:52:46.617Z,65.52
2022-08-17T23:55:13.029Z,64.34
2022-08-17T23:57:39.414Z,62.98
